Time;durP1;ratioP1;P1;durP2;ratioP2;P2;SDS_P1;SDS_P2;PMS_P1;PMS_P2;Temp;Humidity;BMP_temperature;BMP_pressure;BME280_temperature;BME280_humidity;BME280_pressure;Samples;Min_cycle;Max_cycle;Signal;HPM_P1;HPM_P2
2022/12/07 00:01:25;;;;;;;1999.90;999.90;;;4.70;99.90;;;;;;5051532;28;20838;-69
2022/12/07 00:03:56;;;;;;;1999.90;999.90;;;4.70;99.90;;;;;;5050880;28;20444;-70
2022/12/07 00:06:24;;;;;;;1999.90;999.90;;;4.70;99.90;;;;;;5049978;28;20448;-70
2022/12/07 00:08:50;;;;;;;1999.90;999.90;;;4.70;99.90;;;;;;5048305;28;20464;-71
2022/12/07 00:11:20;;;;;;;1999.90;999.90;;;4.70;99.90;;;;;;5046769;28;20457;-72
2022/12/07 00:13:47;;;;;;;1999.90;999.90;;;4.70;99.90;;;;;;5030446;28;20449;-71
2022/12/07 00:16:16;;;;;;;1999.90;999.90;;;4.70;99.90;;;;;;5032021;28;20495;-71
2022/12/07 00:18:43;;;;;;;1999.90;999.90;;;4.70;99.90;;;;;;5031826;28;20441;-70
2022/12/07 00:21:13;;;;;;;1999.90;999.90;;;4.70;99.90;;;;;;5032224;28;20473;-71
2022/12/07 00:23:41;;;;;;;1999.90;999.90;;;4.60;99.90;;;;;;5032387;28;20452;-70
2022/12/07 00:26:10;;;;;;;1999.90;999.90;;;4.60;99.90;;;;;;5031930;28;20441;-70
2022/12/07 00:28:37;;;;;;;1999.90;999.90;;;4.60;99.90;;;;;;5031828;28;20444;-70
2022/12/07 00:31:05;;;;;;;1999.90;999.90;;;4.60;99.90;;;;;;5031601;28;20990;-71
2022/12/07 00:33:33;;;;;;;1999.90;999.90;;;4.60;99.90;;;;;;5032087;28;20847;-71
2022/12/07 00:36:00;;;;;;;1999.90;999.90;;;4.60;99.90;;;;;;5031598;28;20461;-72
2022/12/07 00:38:31;;;;;;;1999.90;999.90;;;4.60;99.90;;;;;;5031506;28;20939;-71
2022/12/07 00:40:58;;;;;;;1999.90;999.90;;;4.60;99.90;;;;;;5031561;28;20956;-71
2022/12/07 00:43:25;;;;;;;1999.90;999.90;;;4.60;99.90;;;;;;5031700;28;20813;-71
2022/12/07 00:45:53;;;;;;;1999.90;999.90;;;4.60;99.90;;;;;;5032124;28;20545;-72
2022/12/07 00:48:20;;;;;;;1999.90;999.90;;;4.60;99.90;;;;;;5031445;28;20453;-72
2022/12/07 00:50:47;;;;;;;1999.90;999.90;;;4.60;99.90;;;;;;5031428;28;20465;-71
2022/12/07 00:53:13;;;;;;;1999.90;999.90;;;4.50;99.90;;;;;;5031432;28;20433;-70
2022/12/07 00:55:42;;;;;;;1999.90;999.90;;;4.50;99.90;;;;;;5031531;28;20922;-70
2022/12/07 00:58:08;;;;;;;1999.90;999.90;;;4.50;99.90;;;;;;5031021;28;20488;-70
2022/12/07 01:00:37;;;;;;;1999.90;999.90;;;4.50;99.90;;;;;;5033703;28;20449;-70
2022/12/07 01:03:04;;;;;;;1999.90;999.90;;;4.40;99.90;;;;;;5051141;28;21177;-70
2022/12/07 01:05:31;;;;;;;1999.90;999.90;;;4.40;99.90;;;;;;5051540;28;20535;-72
2022/12/07 01:07:58;;;;;;;1999.90;999.90;;;4.40;99.90;;;;;;5051152;28;20442;-70
2022/12/07 01:10:25;;;;;;;1999.90;999.90;;;4.40;99.90;;;;;;5050973;28;20527;-70
2022/12/07 01:12:53;;;;;;;1999.90;999.90;;;4.40;99.90;;;;;;5051137;28;20443;-71
2022/12/07 01:15:20;;;;;;;1999.90;999.90;;;4.30;99.90;;;;;;5051218;28;20441;-69
2022/12/07 01:17:47;;;;;;;1999.90;999.90;;;4.40;99.90;;;;;;5050140;28;20482;-71
2022/12/07 01:20:15;;;;;;;1999.90;999.90;;;4.40;99.90;;;;;;5050226;28;20450;-72
2022/12/07 01:22:43;;;;;;;1999.90;999.90;;;4.40;99.90;;;;;;5050983;28;20886;-71
2022/12/07 01:25:11;;;;;;;1999.90;999.90;;;4.40;99.90;;;;;;5050588;28;20839;-71
2022/12/07 01:27:38;;;;;;;1999.90;999.90;;;4.30;99.90;;;;;;5050772;28;20442;-71
2022/12/07 01:30:08;;;;;;;1999.90;999.90;;;4.40;99.90;;;;;;5050173;28;20450;-71
2022/12/07 01:32:35;;;;;;;1999.90;999.90;;;4.40;99.90;;;;;;5050501;28;21012;-70
2022/12/07 01:35:02;;;;;;;1999.90;999.90;;;4.40;99.90;;;;;;5050276;28;21007;-70
2022/12/07 01:37:29;;;;;;;1999.90;999.90;;;4.40;99.90;;;;;;5050506;28;21004;-70
2022/12/07 01:39:55;;;;;;;1999.90;999.90;;;4.40;99.90;;;;;;5050129;28;20969;-70
2022/12/07 01:42:22;;;;;;;1999.90;999.90;;;4.30;99.90;;;;;;5050724;28;20464;-70
2022/12/07 01:45:22;;;;;;;1999.90;999.90;;;4.40;99.90;;;;;;5050864;28;20444;-70
2022/12/07 01:47:54;;;;;;;1999.90;999.90;;;4.40;99.90;;;;;;5050193;28;21180;-70
2022/12/07 01:50:22;;;;;;;1999.90;999.90;;;4.40;99.90;;;;;;5050355;28;20428;-72
2022/12/07 01:52:52;;;;;;;1999.90;999.90;;;4.40;99.90;;;;;;5050161;28;20459;-70
2022/12/07 01:55:20;;;;;;;1999.90;999.90;;;4.40;99.90;;;;;;5050242;28;21019;-71
2022/12/07 01:57:50;;;;;;;1999.90;999.90;;;4.40;99.90;;;;;;5049944;28;20480;-70
2022/12/07 02:00:19;;;;;;;1999.90;999.90;;;4.40;99.90;;;;;;5049908;28;20440;-70
2022/12/07 02:02:52;;;;;;;1999.90;999.90;;;4.40;99.90;;;;;;5049518;28;20472;-71
2022/12/07 02:05:19;;;;;;;1999.90;999.90;;;4.40;99.90;;;;;;5050353;28;20444;-70
2022/12/07 02:07:48;;;;;;;1999.90;999.90;;;4.30;99.90;;;;;;5050210;28;20822;-70
2022/12/07 02:10:16;;;;;;;1999.90;999.90;;;4.30;99.90;;;;;;5049722;28;20452;-71
2022/12/07 02:12:45;;;;;;;1999.90;999.90;;;4.30;99.90;;;;;;5049878;28;20471;-70
2022/12/07 02:15:12;;;;;;;1999.90;999.90;;;4.40;99.90;;;;;;5049878;28;20498;-71
2022/12/07 02:17:48;;;;;;;1999.90;999.90;;;4.30;99.90;;;;;;5049710;28;21353;-70
2022/12/07 02:20:27;;;;;;;1999.90;999.90;;;4.30;99.90;;;;;;5049478;28;20448;-70
2022/12/07 02:23:33;;;;;;;1999.90;999.90;;;4.30;99.90;;;;;;5049959;28;20635;-71
2022/12/07 02:26:22;;;;;;;1999.90;999.90;;;4.30;99.90;;;;;;5039285;28;20464;-71
2022/12/07 02:29:07;;;;;;;1999.90;999.90;;;4.30;99.90;;;;;;5049359;28;20444;-70
2022/12/07 02:31:34;;;;;;;1999.90;999.90;;;4.30;99.90;;;;;;5049738;28;20464;-70
2022/12/07 02:34:08;;;;;;;1999.90;999.90;;;4.30;99.90;;;;;;5049746;28;20531;-73
2022/12/07 02:36:43;;;;;;;1999.90;999.90;;;4.30;99.90;;;;;;5050058;28;20465;-70
2022/12/07 02:39:16;;;;;;;1999.90;999.90;;;4.30;99.90;;;;;;5049937;28;20469;-70
2022/12/07 02:41:47;;;;;;;1999.90;999.90;;;4.40;99.90;;;;;;5049850;28;20475;-72
2022/12/07 02:44:20;;;;;;;1999.90;999.90;;;4.40;99.90;;;;;;5049789;28;20886;-71
2022/12/07 02:46:53;;;;;;;1999.90;999.90;;;4.40;99.90;;;;;;5049800;28;20444;-71
2022/12/07 02:49:22;;;;;;;1999.90;999.90;;;4.30;99.90;;;;;;5049604;28;20808;-70
2022/12/07 02:51:49;;;;;;;1999.90;999.90;;;4.30;99.90;;;;;;5049475;28;20864;-72
2022/12/07 02:54:18;;;;;;;1999.90;999.90;;;4.30;99.90;;;;;;5049711;28;20444;-70
2022/12/07 02:56:50;;;;;;;1999.90;999.90;;;4.30;99.90;;;;;;5049257;28;20448;-72
2022/12/07 02:59:27;;;;;;;1999.90;999.90;;;4.20;99.90;;;;;;5049542;28;20454;-70
2022/12/07 03:02:01;;;;;;;1999.90;999.90;;;4.30;99.90;;;;;;5049418;28;20468;-70
2022/12/07 03:04:43;;;;;;;1999.90;999.90;;;4.30;99.90;;;;;;5049613;28;20466;-70
2022/12/07 03:07:31;;;;;;;1999.90;999.90;;;4.30;99.90;;;;;;5049232;28;20829;-72
2022/12/07 03:10:04;;;;;;;1999.90;999.90;;;4.40;99.90;;;;;;5049145;28;20454;-72
2022/12/07 03:12:43;;;;;;;1999.90;999.90;;;4.30;99.90;;;;;;5049356;28;20466;-70
2022/12/07 03:15:15;;;;;;;1999.90;999.90;;;4.30;99.90;;;;;;5049316;28;20451;-72
2022/12/07 03:17:45;;;;;;;1999.90;999.90;;;4.30;99.90;;;;;;5048979;28;20480;-71
2022/12/07 03:20:16;;;;;;;1999.90;999.90;;;4.30;99.90;;;;;;5049243;28;20444;-70
2022/12/07 03:22:45;;;;;;;1999.90;999.90;;;4.30;99.90;;;;;;5048971;28;20990;-72
2022/12/07 03:25:14;;;;;;;1999.90;999.90;;;4.30;99.90;;;;;;5049330;28;20448;-72
2022/12/07 03:27:45;;;;;;;1999.90;999.90;;;4.30;99.90;;;;;;5049228;28;20888;-70
2022/12/07 03:30:18;;;;;;;1999.90;999.90;;;4.40;99.90;;;;;;5048692;28;20448;-72
2022/12/07 03:32:47;;;;;;;1999.90;999.90;;;4.40;99.90;;;;;;5049389;28;20885;-70
2022/12/07 03:35:19;;;;;;;1999.90;999.90;;;4.30;99.90;;;;;;5048876;28;20458;-72
2022/12/07 03:37:50;;;;;;;1999.90;999.90;;;4.30;99.90;;;;;;5049067;28;20487;-70
2022/12/07 03:40:23;;;;;;;1999.90;999.90;;;4.30;99.90;;;;;;5048708;28;20479;-71
2022/12/07 03:42:52;;;;;;;1999.90;999.90;;;4.20;99.90;;;;;;5051728;28;20467;-71
2022/12/07 03:45:24;;;;;;;1999.90;999.90;;;4.20;99.90;;;;;;5052669;28;20444;-71
2022/12/07 03:47:55;;;;;;;1999.90;999.90;;;4.20;99.90;;;;;;5052897;28;20443;-70
2022/12/07 03:50:30;;;;;;;1999.90;999.90;;;4.10;99.90;;;;;;5052416;28;20451;-70
2022/12/07 03:53:00;;;;;;;1999.90;999.90;;;3.90;99.90;;;;;;5053028;28;20442;-70
2022/12/07 03:55:29;;;;;;;1999.90;999.90;;;3.90;99.90;;;;;;5052304;28;20455;-70
2022/12/07 03:58:00;;;;;;;1999.90;999.90;;;3.80;99.90;;;;;;5052344;28;20486;-70
2022/12/07 04:00:29;;;;;;;1999.90;999.90;;;3.80;99.90;;;;;;5052230;28;20455;-68
2022/12/07 04:02:56;;;;;;;1999.90;999.90;;;3.80;99.90;;;;;;5052234;28;20455;-72
2022/12/07 04:05:23;;;;;;;1999.90;999.90;;;3.70;99.90;;;;;;5052364;28;20451;-72
2022/12/07 04:07:50;;;;;;;1999.90;999.90;;;3.70;99.90;;;;;;5052056;28;21018;-71
2022/12/07 04:10:17;;;;;;;1999.90;999.90;;;3.60;99.90;;;;;;5052285;28;20957;-70
2022/12/07 04:12:44;;;;;;;1999.90;999.90;;;3.50;99.90;;;;;;5052028;28;20471;-70
2022/12/07 04:15:11;;;;;;;1999.90;999.90;;;3.40;99.90;;;;;;5052267;28;20448;-70
2022/12/07 04:17:39;;;;;;;1999.90;999.90;;;3.40;99.90;;;;;;5051967;28;20836;-70
2022/12/07 04:20:08;;;;;;;1999.90;999.90;;;3.30;99.90;;;;;;5052009;28;20455;-70
2022/12/07 04:22:35;;;;;;;1999.90;999.90;;;3.10;99.90;;;;;;5051797;28;20479;-70
2022/12/07 04:25:02;;;;;;;1999.90;999.90;;;3.10;99.90;;;;;;5052441;28;20450;-71
2022/12/07 04:27:28;;;;;;;1999.90;999.90;;;3.20;99.90;;;;;;5052045;28;20446;-70
2022/12/07 04:29:55;;;;;;;1999.90;999.90;;;3.30;99.90;;;;;;5051875;28;20448;-71
2022/12/07 04:32:22;;;;;;;1999.90;999.90;;;3.30;99.90;;;;;;5052003;28;20464;-70
2022/12/07 04:34:50;;;;;;;1999.90;999.90;;;3.40;99.90;;;;;;5051575;28;20474;-72
2022/12/07 04:37:18;;;;;;;1999.90;999.90;;;3.40;99.90;;;;;;5052000;28;20436;-71
2022/12/07 04:39:45;;;;;;;1999.90;999.90;;;3.40;99.90;;;;;;5051778;28;20469;-71
2022/12/07 04:42:12;;;;;;;1999.90;999.90;;;3.50;99.90;;;;;;5051775;28;20468;-70
2022/12/07 04:44:39;;;;;;;1999.90;999.90;;;3.50;99.90;;;;;;5051354;28;20471;-70
2022/12/07 04:47:06;;;;;;;1999.90;999.90;;;3.50;99.90;;;;;;5051801;28;20846;-71
2022/12/07 04:49:33;;;;;;;1999.90;999.90;;;3.50;99.90;;;;;;5051273;28;20463;-70
2022/12/07 04:52:01;;;;;;;1999.90;999.90;;;3.40;99.90;;;;;;5051535;28;20463;-70
2022/12/07 04:54:28;;;;;;;1999.90;999.90;;;3.50;99.90;;;;;;5051701;28;20448;-70
2022/12/07 04:56:54;;;;;;;1999.90;999.90;;;3.40;99.90;;;;;;5051754;28;20448;-70
2022/12/07 04:59:21;;;;;;;1999.90;999.90;;;3.40;99.90;;;;;;5051386;28;20482;-70
2022/12/07 05:01:48;;;;;;;1999.90;999.90;;;3.40;99.90;;;;;;5051199;28;20460;-70
2022/12/07 05:04:15;;;;;;;1999.90;999.90;;;3.40;99.90;;;;;;5051738;28;20448;-72
2022/12/07 05:06:42;;;;;;;1999.90;999.90;;;3.40;99.90;;;;;;5051733;28;20660;-69
2022/12/07 05:09:10;;;;;;;1999.90;999.90;;;3.30;99.90;;;;;;5051635;28;20428;-69
2022/12/07 05:11:40;;;;;;;1999.90;999.90;;;3.20;99.90;;;;;;5051241;28;20448;-70
2022/12/07 05:14:11;;;;;;;1999.90;999.90;;;3.20;99.90;;;;;;5051467;28;20443;-69
2022/12/07 05:16:39;;;;;;;1999.90;999.90;;;3.20;99.90;;;;;;5051208;28;20780;-70
2022/12/07 05:19:06;;;;;;;1999.90;999.90;;;3.10;99.90;;;;;;5051276;28;20476;-70
2022/12/07 05:21:33;;;;;;;1999.90;999.90;;;3.10;99.90;;;;;;5051228;28;20464;-73
2022/12/07 05:24:00;;;;;;;1999.90;999.90;;;3.00;99.90;;;;;;5051275;28;20448;-69
2022/12/07 05:26:28;;;;;;;1999.90;999.90;;;3.00;99.90;;;;;;5050864;28;21141;-71
2022/12/07 05:28:56;;;;;;;1999.90;999.90;;;2.90;99.90;;;;;;5050516;28;20450;-71
2022/12/07 05:31:25;;;;;;;1999.90;999.90;;;2.90;99.90;;;;;;5051185;28;20460;-73
2022/12/07 05:33:52;;;;;;;1999.90;999.90;;;2.90;99.90;;;;;;5051101;28;20436;-71
2022/12/07 05:36:19;;;;;;;1999.90;999.90;;;2.80;99.90;;;;;;5050924;28;20451;-70
2022/12/07 05:38:45;;;;;;;1999.90;999.90;;;2.80;99.90;;;;;;5050358;28;20471;-71
2022/12/07 05:43:57;;;;;;;1999.90;999.90;;;2.80;99.90;;;;;;5050248;28;20523;-70
2022/12/07 05:46:23;;;;;;;1999.90;999.90;;;2.90;99.90;;;;;;5050860;28;20511;-71
2022/12/07 05:48:50;;;;;;;1999.90;999.90;;;2.90;99.90;;;;;;5049978;28;20440;-71
2022/12/07 05:51:17;;;;;;;1999.90;999.90;;;2.90;99.90;;;;;;5050488;28;20463;-69
2022/12/07 05:53:44;;;;;;;1999.90;999.90;;;3.00;99.90;;;;;;5050348;28;20923;-71
2022/12/07 05:56:11;;;;;;;1999.90;999.90;;;3.00;99.90;;;;;;5050426;28;20440;-70
2022/12/07 06:01:23;;;;;;;1999.90;999.90;;;3.00;99.90;;;;;;5048803;28;20976;-71
2022/12/07 06:03:50;;;;;;;1999.90;999.90;;;3.10;99.90;;;;;;5048998;28;20443;-73
2022/12/07 06:06:17;;;;;;;1999.90;999.90;;;3.20;99.90;;;;;;5040976;28;20454;-71
2022/12/07 06:08:43;;;;;;;1999.90;999.90;;;3.20;99.90;;;;;;5046472;28;20444;-72
2022/12/07 06:13:54;;;;;;;1999.90;999.90;;;3.30;99.90;;;;;;5041476;28;20520;-72
2022/12/07 06:16:22;;;;;;;1999.90;999.90;;;3.40;99.90;;;;;;5040032;28;20456;-72
2022/12/07 06:18:49;;;;;;;1999.90;999.90;;;3.40;99.90;;;;;;5044749;28;20476;-72
2022/12/07 06:21:16;;;;;;;1999.90;999.90;;;3.40;99.90;;;;;;5046753;28;20470;-71
2022/12/07 06:23:43;;;;;;;1999.90;999.90;;;3.40;99.90;;;;;;5041647;28;20448;-72
2022/12/07 06:26:09;;;;;;;1999.90;999.90;;;3.40;99.90;;;;;;5027724;28;21056;-72
2022/12/07 06:28:36;;;;;;;1999.90;999.90;;;3.40;99.90;;;;;;5027106;28;20447;-72
2022/12/07 06:31:03;;;;;;;1999.90;999.90;;;3.30;99.90;;;;;;5027597;28;20832;-72
2022/12/07 06:33:32;;;;;;;1999.90;999.90;;;3.30;99.90;;;;;;5027567;28;21030;-72
2022/12/07 06:35:58;;;;;;;1999.90;999.90;;;3.30;99.90;;;;;;5030071;28;20946;-72
2022/12/07 06:38:25;;;;;;;1999.90;999.90;;;3.40;99.90;;;;;;5046113;28;20494;-72
2022/12/07 06:40:52;;;;;;;1999.90;999.90;;;3.40;99.90;;;;;;5047071;28;20467;-72
2022/12/07 06:43:19;;;;;;;1999.90;999.90;;;3.40;99.90;;;;;;5048611;28;20452;-72
2022/12/07 06:45:45;;;;;;;1999.90;999.90;;;3.40;99.90;;;;;;5047077;28;20459;-72
2022/12/07 06:48:12;;;;;;;1999.90;999.90;;;3.40;99.90;;;;;;5048289;28;20948;-73
2022/12/07 06:50:40;;;;;;;1999.90;999.90;;;3.40;99.90;;;;;;5049585;28;20451;-72
2022/12/07 06:53:07;;;;;;;1999.90;999.90;;;3.40;99.90;;;;;;5049850;28;20444;-71
2022/12/07 06:55:34;;;;;;;1999.90;999.90;;;3.40;99.90;;;;;;5050230;28;20440;-72
2022/12/07 06:58:01;;;;;;;1999.90;999.90;;;3.40;99.90;;;;;;5049625;28;20459;-72
2022/12/07 07:00:28;;;;;;;1999.90;999.90;;;3.40;99.90;;;;;;5049272;28;20535;-72
2022/12/07 07:02:55;;;;;;;1999.90;999.90;;;3.40;99.90;;;;;;5049356;28;20455;-72
2022/12/07 07:05:22;;;;;;;1999.90;999.90;;;3.30;99.90;;;;;;5049207;28;20454;-72
2022/12/07 07:07:50;;;;;;;1999.90;999.90;;;3.40;99.90;;;;;;5049435;28;20448;-72
2022/12/07 07:10:17;;;;;;;1999.90;999.90;;;3.50;99.90;;;;;;5048951;28;20533;-72
2022/12/07 07:12:44;;;;;;;1999.90;999.90;;;3.40;99.90;;;;;;5049297;28;20467;-72
2022/12/07 07:15:11;;;;;;;1999.90;999.90;;;3.50;99.90;;;;;;5049428;28;20455;-71
2022/12/07 07:17:38;;;;;;;1999.90;999.90;;;3.50;99.90;;;;;;5053476;28;20997;-71
2022/12/07 07:20:06;;;;;;;1999.90;999.90;;;3.60;99.90;;;;;;5052977;28;20510;-72
2022/12/07 07:22:33;;;;;;;1999.90;999.90;;;3.60;99.90;;;;;;5053425;28;20460;-71
2022/12/07 07:25:01;;;;;;;1999.90;999.90;;;3.60;99.90;;;;;;5053310;28;20461;-72
2022/12/07 07:27:28;;;;;;;1999.90;999.90;;;3.70;99.90;;;;;;5053226;28;20444;-72
2022/12/07 07:29:55;;;;;;;1999.90;999.90;;;3.70;99.90;;;;;;5052607;28;20443;-71
2022/12/07 07:32:21;;;;;;;1999.90;999.90;;;3.70;99.90;;;;;;5052947;28;20474;-72
2022/12/07 07:34:48;;;;;;;1999.90;999.90;;;3.80;99.90;;;;;;5052782;28;20965;-72
2022/12/07 07:37:15;;;;;;;1999.90;999.90;;;3.80;99.90;;;;;;5053086;28;20454;-71
2022/12/07 07:39:42;;;;;;;1999.90;999.90;;;3.90;99.90;;;;;;5052443;28;20486;-72
2022/12/07 07:42:10;;;;;;;1999.90;999.90;;;3.90;99.90;;;;;;5052827;28;20993;-71
2022/12/07 07:44:37;;;;;;;1999.90;999.90;;;4.00;99.90;;;;;;5052968;28;20839;-71
2022/12/07 07:47:04;;;;;;;1999.90;999.90;;;4.00;99.90;;;;;;5052923;28;20451;-72
2022/12/07 07:49:31;;;;;;;1999.90;999.90;;;4.00;99.90;;;;;;5052763;28;20444;-72
2022/12/07 07:51:57;;;;;;;1999.90;999.90;;;4.10;99.90;;;;;;5052468;28;20470;-72
2022/12/07 07:54:24;;;;;;;1999.90;999.90;;;4.20;99.90;;;;;;5052511;28;20834;-72
2022/12/07 07:56:51;;;;;;;1999.90;999.90;;;4.30;99.90;;;;;;5052316;28;20852;-72
2022/12/07 07:59:19;;;;;;;1999.90;999.90;;;4.30;99.90;;;;;;5052042;28;20483;-73
2022/12/07 08:01:46;;;;;;;1999.90;999.90;;;4.30;99.90;;;;;;5052356;28;20470;-72
2022/12/07 08:04:13;;;;;;;1999.90;999.90;;;4.40;99.90;;;;;;5052571;28;20443;-72
2022/12/07 08:06:41;;;;;;;1999.90;999.90;;;4.40;99.90;;;;;;5052435;28;20444;-72
2022/12/07 08:09:09;;;;;;;1999.90;999.90;;;4.50;99.90;;;;;;5051977;28;20452;-72
2022/12/07 08:11:36;;;;;;;1999.90;999.90;;;4.50;99.90;;;;;;5052516;28;20472;-72
2022/12/07 08:14:02;;;;;;;1999.90;999.90;;;4.60;99.90;;;;;;5052647;28;20527;-72
2022/12/07 08:16:30;;;;;;;1999.90;999.90;;;4.70;99.90;;;;;;5052350;28;20455;-72
2022/12/07 08:18:57;;;;;;;1999.90;999.90;;;4.70;99.90;;;;;;5051933;28;21019;-73
2022/12/07 08:21:24;;;;;;;1999.90;999.90;;;4.90;99.90;;;;;;5052334;28;20942;-72
2022/12/07 08:23:51;;;;;;;1999.90;999.90;;;5.00;99.90;;;;;;5052169;28;20454;-73
2022/12/07 08:26:18;;;;;;;1999.90;999.90;;;5.00;99.90;;;;;;5052392;28;20451;-73
2022/12/07 08:28:45;;;;;;;1999.90;999.90;;;5.10;99.90;;;;;;5051455;28;20444;-72
2022/12/07 08:31:16;;;;;;;1999.90;999.90;;;5.30;99.90;;;;;;5052117;28;20468;-73
2022/12/07 08:33:46;;;;;;;1999.90;999.90;;;5.30;99.90;;;;;;5052031;28;20831;-72
2022/12/07 08:36:13;;;;;;;1999.90;999.90;;;5.40;99.90;;;;;;5051815;28;20474;-72
2022/12/07 08:38:42;;;;;;;1999.90;999.90;;;5.50;99.90;;;;;;5051274;28;20487;-71
2022/12/07 08:41:09;;;;;;;1999.90;999.90;;;5.50;99.90;;;;;;5052068;28;20497;-72
2022/12/07 08:43:36;;;;;;;1999.90;999.90;;;5.60;99.90;;;;;;5051867;28;20448;-72
2022/12/07 08:46:09;;;;;;;1999.90;999.90;;;5.60;99.90;;;;;;5051938;28;20454;-72
2022/12/07 08:48:40;;;;;;;1999.90;999.90;;;5.70;99.90;;;;;;5051402;28;20448;-73
2022/12/07 08:51:08;;;;;;;1999.90;999.90;;;5.70;99.90;;;;;;5051615;28;20491;-72
2022/12/07 08:53:36;;;;;;;1999.90;999.90;;;5.80;99.90;;;;;;5051604;28;20895;-73
2022/12/07 08:56:03;;;;;;;1999.90;999.90;;;5.80;99.90;;;;;;5051677;28;20444;-72
2022/12/07 08:58:30;;;;;;;1999.90;999.90;;;5.80;99.90;;;;;;5050897;28;20451;-73
2022/12/07 09:00:56;;;;;;;1999.90;999.90;;;5.90;99.90;;;;;;5051355;28;20468;-72
2022/12/07 09:03:23;;;;;;;1999.90;999.90;;;5.80;99.90;;;;;;5051276;28;20440;-72
2022/12/07 09:05:50;;;;;;;1999.90;999.90;;;5.90;99.90;;;;;;5051244;28;20460;-72
2022/12/07 09:08:18;;;;;;;1999.90;999.90;;;5.80;99.90;;;;;;5051171;28;20444;-73
2022/12/07 09:10:46;;;;;;;1999.90;999.90;;;5.90;99.90;;;;;;5051275;28;20440;-72
2022/12/07 09:13:12;;;;;;;1999.90;999.90;;;6.00;99.90;;;;;;5051100;28;20452;-73
2022/12/07 09:15:39;;;;;;;1999.90;999.90;;;6.10;99.90;;;;;;5051005;28;20462;-73
2022/12/07 09:18:06;;;;;;;1999.90;999.90;;;6.20;99.90;;;;;;5050898;28;20809;-73
2022/12/07 09:20:33;;;;;;;1999.90;999.90;;;6.30;99.90;;;;;;5050811;28;20482;-72
2022/12/07 09:23:00;;;;;;;1999.90;999.90;;;6.30;99.90;;;;;;5051227;28;20452;-72
2022/12/07 09:25:29;;;;;;;1999.90;999.90;;;6.30;99.90;;;;;;5050906;28;20484;-72
2022/12/07 09:27:59;;;;;;;1999.90;999.90;;;6.50;99.90;;;;;;5050833;28;20450;-72
2022/12/07 09:30:26;;;;;;;1999.90;999.90;;;6.60;99.90;;;;;;5050622;28;20448;-72
2022/12/07 09:32:54;;;;;;;1999.90;999.90;;;6.70;99.90;;;;;;5050927;28;20965;-72
2022/12/07 09:35:21;;;;;;;1999.90;999.90;;;6.70;99.90;;;;;;5050564;28;20463;-72
2022/12/07 09:37:47;;;;;;;1999.90;999.90;;;6.80;99.90;;;;;;5050828;28;20452;-72
2022/12/07 09:40:17;;;;;;;1999.90;999.90;;;6.80;99.90;;;;;;5049304;28;20490;-72
2022/12/07 09:42:49;;;;;;;1999.90;999.90;;;6.90;99.90;;;;;;5050445;28;21008;-72
2022/12/07 09:45:20;;;;;;;1999.90;999.90;;;6.90;99.90;;;;;;5050311;28;20455;-71
2022/12/07 09:47:47;;;;;;;1999.90;999.90;;;6.70;99.90;;;;;;5050399;28;20947;-71
2022/12/07 09:50:17;;;;;;;1999.90;999.90;;;6.70;99.90;;;;;;5050221;28;20442;-72
2022/12/07 09:52:47;;;;;;;1999.90;999.90;;;6.60;99.90;;;;;;5049221;28;20464;-72
2022/12/07 09:55:17;;;;;;;1999.90;999.90;;;6.60;99.90;;;;;;5050459;28;20842;-72
2022/12/07 09:57:45;;;;;;;1999.90;999.90;;;6.60;99.90;;;;;;5050226;28;20977;-71
2022/12/07 10:00:16;;;;;;;1999.90;999.90;;;6.50;99.90;;;;;;5050067;28;21021;-72
2022/12/07 10:02:45;;;;;;;1999.90;999.90;;;6.40;99.90;;;;;;5050033;28;20472;-72
2022/12/07 10:05:15;;;;;;;1999.90;999.90;;;6.40;99.90;;;;;;5050124;28;20458;-72
2022/12/07 10:07:42;;;;;;;1999.90;999.90;;;6.40;99.90;;;;;;5050001;28;20451;-71
2022/12/07 10:10:17;;;;;;;1999.90;999.90;;;6.50;99.90;;;;;;5049685;28;20440;-71
2022/12/07 10:12:56;;;;;;;1999.90;999.90;;;6.50;99.90;;;;;;5050014;28;20467;-72
2022/12/07 10:15:23;;;;;;;1999.90;999.90;;;6.50;99.90;;;;;;5050004;28;21143;-72
2022/12/07 10:17:53;;;;;;;1999.90;999.90;;;6.40;99.90;;;;;;5050570;28;20462;-74
2022/12/07 10:20:24;;;;;;;1999.90;999.90;;;6.40;99.90;;;;;;5050318;28;21051;-72
2022/12/07 10:23:00;;;;;;;1999.90;999.90;;;6.20;99.90;;;;;;5050525;28;20472;-73
2022/12/07 10:25:30;;;;;;;1999.90;999.90;;;6.20;99.90;;;;;;5050775;28;20448;-73
2022/12/07 10:28:13;;;;;;;1999.90;999.90;;;6.20;99.90;;;;;;5050532;28;20487;-73
2022/12/07 10:30:53;;;;;;;1999.90;999.90;;;6.30;99.90;;;;;;5049960;28;20444;-73
2022/12/07 10:33:33;;;;;;;1999.90;999.90;;;6.20;99.90;;;;;;5049998;28;20535;-73
2022/12/07 10:36:01;;;;;;;1999.90;999.90;;;6.20;99.90;;;;;;5049811;28;20464;-72
2022/12/07 10:38:34;;;;;;;1999.90;999.90;;;6.20;99.90;;;;;;5049223;28;20539;-72
2022/12/07 10:41:09;;;;;;;1999.90;999.90;;;6.30;99.90;;;;;;5049657;28;20484;-72
2022/12/07 10:43:55;;;;;;;1999.90;999.90;;;6.30;99.90;;;;;;5049565;28;20448;-73
2022/12/07 10:46:54;;;;;;;1999.90;999.90;;;6.30;99.90;;;;;;5050090;28;20811;-72
2022/12/07 10:49:49;;;;;;;1999.90;999.90;;;6.40;99.90;;;;;;5049383;28;20447;-72
2022/12/07 10:52:27;;;;;;;1999.90;999.90;;;6.30;99.90;;;;;;5056364;28;20464;-72
2022/12/07 10:55:12;;;;;;;1999.90;999.90;;;6.30;99.90;;;;;;5056428;28;20938;-73
2022/12/07 10:57:52;;;;;;;1999.90;999.90;;;6.30;99.90;;;;;;5056226;28;20501;-70
2022/12/07 11:00:26;;;;;;;1999.90;999.90;;;6.40;99.90;;;;;;5055989;28;20479;-70
2022/12/07 11:03:37;;;;;;;1999.90;999.90;;;6.40;99.90;;;;;;5056109;28;20503;-71
2022/12/07 11:06:15;;;;;;;1999.90;999.90;;;6.40;99.90;;;;;;5039198;28;20452;-72
2022/12/07 11:08:58;;;;;;;1999.90;999.90;;;6.30;99.90;;;;;;5056330;28;20449;-72
2022/12/07 11:11:39;;;;;;;1999.90;999.90;;;6.30;99.90;;;;;;5056577;28;20467;-72
2022/12/07 11:14:20;;;;;;;1999.90;999.90;;;6.20;99.90;;;;;;5056063;28;20455;-71
2022/12/07 11:16:57;;;;;;;1999.90;999.90;;;6.20;99.90;;;;;;5056116;28;20821;-72
2022/12/07 11:19:51;;;;;;;1999.90;999.90;;;6.10;99.90;;;;;;5055685;28;20537;-72
2022/12/07 11:22:24;;;;;;;1999.90;999.90;;;6.10;99.90;;;;;;5055933;28;20463;-71
2022/12/07 11:24:59;;;;;;;1999.90;999.90;;;6.00;99.90;;;;;;5056012;28;20470;-71
2022/12/07 11:27:36;;;;;;;1999.90;999.90;;;6.00;99.90;;;;;;5055989;28;20443;-71
2022/12/07 11:30:17;;;;;;;1999.90;999.90;;;6.10;99.90;;;;;;5055774;28;20466;-71
2022/12/07 11:33:02;;;;;;;1999.90;999.90;;;6.10;99.90;;;;;;5055930;28;20827;-72
2022/12/07 11:35:39;;;;;;;1999.90;999.90;;;6.00;99.90;;;;;;5056115;28;20538;-72
2022/12/07 11:38:12;;;;;;;1999.90;999.90;;;5.90;99.90;;;;;;5056773;28;20443;-72
2022/12/07 11:40:42;;;;;;;1999.90;999.90;;;5.80;99.90;;;;;;5056285;28;20862;-72
2022/12/07 11:43:19;;;;;;;1999.90;999.90;;;5.70;99.90;;;;;;5056480;28;20480;-72
2022/12/07 11:45:53;;;;;;;1999.90;999.90;;;5.70;99.90;;;;;;5055853;28;20462;-72
2022/12/07 11:48:26;;;;;;;1999.90;999.90;;;5.60;99.90;;;;;;5055704;28;20452;-72
2022/12/07 11:50:56;;;;;;;1999.90;999.90;;;5.60;99.90;;;;;;5056047;28;20468;-72
2022/12/07 11:53:27;;;;;;;1999.90;999.90;;;5.60;99.90;;;;;;5056080;28;20444;-73
2022/12/07 11:55:58;;;;;;;1999.90;999.90;;;5.70;99.90;;;;;;5055827;28;20820;-73
2022/12/07 11:58:51;;;;;;;1999.90;999.90;;;5.70;99.90;;;;;;5055398;28;20447;-72
2022/12/07 12:01:30;;;;;;;1999.90;999.90;;;5.90;99.90;;;;;;5055762;28;20570;-72
2022/12/07 12:04:03;;;;;;;1999.90;999.90;;;5.90;99.90;;;;;;5052637;28;21006;-72
2022/12/07 12:06:31;;;;;;;1999.90;999.90;;;5.90;99.90;;;;;;5053062;28;20458;-72
2022/12/07 12:09:04;;;;;;;1999.90;999.90;;;6.00;99.90;;;;;;5052444;28;20462;-72
2022/12/07 12:11:49;;;;;;;1999.90;999.90;;;5.90;99.90;;;;;;5052745;28;20471;-73
2022/12/07 12:14:29;;;;;;;1999.90;999.90;;;5.80;99.90;;;;;;5052724;28;20818;-73
2022/12/07 12:17:44;;;;;;;1999.90;999.90;;;5.80;99.90;;;;;;5052169;28;20945;-72
2022/12/07 12:20:23;;;;;;;1999.90;999.90;;;5.80;99.90;;;;;;5052056;28;20557;-72
2022/12/07 12:22:55;;;;;;;1999.90;999.90;;;5.80;99.90;;;;;;5052230;28;20467;-73
2022/12/07 12:25:26;;;;;;;1999.90;999.90;;;5.70;99.90;;;;;;5052105;28;20458;-72
2022/12/07 12:27:58;;;;;;;1999.90;999.90;;;5.80;99.90;;;;;;5051874;28;20454;-72
2022/12/07 12:30:34;;;;;;;1999.90;999.90;;;5.80;99.90;;;;;;5051975;28;20531;-73
2022/12/07 12:33:08;;;;;;;1999.90;999.90;;;5.90;99.90;;;;;;5052061;28;20862;-73